North Fryeburg, Maine
Current Conditions -  °F | °C
As of 4:54 AM on Thursday 29 Jan 2015 (Local Time) from KIZG Reporting Station
Clear Clear  
Wind Chill: -12°   Ceiling: Unl
Heat Index: -12°   Visibility: 10mi
Dew Point: -18°   Wind: 0mph
Humidity: 74%   Direction: NA
Pressure: 30.26"   Gusts: NA
Location:  44.0478°N, 70.9547°W
Report Text: KIZG 290954Z AUTO 00000KT 10SM CLR M24/M28 A3026 RMK AO2 SLP259 T12441278
Loading
Personal Weather Stations






























Interactive Weather Map New forecast layout! Learn more

10-Day Weather Forecast

Advertisements
Track Severe Weather on mobile